• Join FlightAware (Why Join?)
  • Login
  • US Flag 
10:36AM EDT


 

Airport Tracker/Info


-or-


 

Live Flight TrackerFlight Track Log ✈ N777HF ✈ 15-Jul-2013 ✈ KTRK - KWVI

Flight Track Log - Related Links

Times and Time Zones

All times are in EDT time to prevent confusion due to time zone crossing. See the N777HF flight status page for this flight to view local times or setup timezone preferences in your user account.

Time Position Orientation Groundspeed Altitude Reporting Facility
EDT Latitude Longitude Course Direction KTS MPH feet Rate Location/Type
06:00PM 39.2119 -120.2844 209° Southwest 202 232 12,000  Level Oakland Center
06:01PM 39.1714 -120.3419 228° Southwest 215 247 13,300 1,320 Climbing Oakland Center
06:02PM 39.1250 -120.3789 212° Southwest 202 232 14,800 1,260 Climbing Oakland Center
06:03PM 39.0647 -120.4142 204° Southwest 196 226 16,000 780 Climbing Oakland Center
06:04PM 39.0142 -120.4508 209° Southwest 205 236 16,500 240 Climbing Oakland Center
06:05PM 39.0387 -120.3409 209° Southwest  Level Estimated
06:05PM 38.9572 -120.4881 207° Southwest 221 254 16,500  Level Oakland Center
06:06PM 38.8967 -120.5292 208° Southwest 238 274 16,500  Level Oakland Center
06:07PM 38.8342 -120.5692 207° Southwest 245 282 16,500  Level Oakland Center
06:08PM 38.7725 -120.6103 207° Southwest 249 287 16,500  Level Oakland Center
06:09PM 38.7111 -120.6519 208° Southwest 249 287 16,500  Level Oakland Center
06:10PM 38.6494 -120.6919 207° Southwest 248 285 16,500  Level Oakland Center
06:11PM 38.5881 -120.7344 208° Southwest 248 285 16,500  Level Oakland Center
06:12PM 38.5136 -120.7842 208° Southwest 250 288 16,500  Level Oakland Center
06:13PM 38.4508 -120.8250 207° Southwest 251 289 16,500  Level Oakland Center
06:14PM 38.3875 -120.8661 207° Southwest 253 291 16,500  Level Oakland Center
06:15PM 38.3247 -120.9081 208° Southwest 252 290 16,500  Level Oakland Center
06:16PM 38.2614 -120.9506 208° Southwest 255 293 16,500  Level Oakland Center
06:17PM 38.1983 -120.9922 207° Southwest 254 292 16,500  Level Oakland Center
06:18PM 38.1353 -121.0328 207° Southwest 253 291 16,500  Level Oakland Center
06:19PM 38.0733 -121.0736 207° Southwest 252 290 16,500  Level Oakland Center
06:20PM 38.0092 -121.1156 207° Southwest 256 295 16,500  Level Oakland Center
06:21PM 37.9475 -121.1547 207° Southwest 251 289 16,500  Level Oakland Center
06:22PM 37.8847 -121.1958 207° Southwest 252 290 16,500  Level Oakland Center
06:23PM 37.8219 -121.2367 207° Southwest 253 291 16,500  Level Oakland Center
06:24PM 37.7478 -121.2844 207° Southwest 251 289 16,500  Level Oakland Center
06:25PM 37.6864 -121.3247 207° Southwest 249 287 16,500  Level Oakland Center
06:26PM 37.6236 -121.3650 207° Southwest 251 289 16,500  Level Oakland Center
06:27PM 37.5669 -121.4022 208° Southwest 246 283 16,500 -720 Level Oakland Center
06:28PM 37.5014 -121.4433 206° Southwest 259 298 15,100 -1,440 Descending Oakland Center
06:30PM 37.4333 -121.4867 207° Southwest 271 312 13,600 -1,320 Descending Oakland Center
06:31PM 37.3667 -121.5289 207° Southwest 270 311 12,400 -1,200 Descending Oakland Center
06:32PM 37.2989 -121.5733 208° Southwest 262 302 11,200 -1,260 Descending Oakland Center
06:33PM 37.2364 -121.6136 207° Southwest 255 293 9,900 -1,320 Descending Oakland Center
06:34PM 37.1711 -121.6514 205° Southwest 257 296 8,500 -840 Descending Oakland Center
06:35PM 37.0933 -121.6975 205° Southwest 256 295 8,200 -300 Descending Oakland Center